Observation data for Northwest Lubbock on 07/11/2018      Previous  Date       Current Mesonet Observations  Soil Data  Daily Summary Page  Observations in Plain Language
KLBW 110505Z 16007KT 26/15 A3015 RMK A01 T02600145  RH  051%=      5-min Rain = 0
KLBW 110510Z 16006KT 26/15 A3015 RMK A01 T02600145  RH  051%=      5-min Rain = 0
KLBW 110515Z 16005KT 26/15 A3016 RMK A01 T02590145  RH  052%=      5-min Rain = 0
KLBW 110520Z 16005KT 26/15 A3015 RMK A01 T02570146  RH  052%=      5-min Rain = 0
KLBW 110525Z 16006KT 26/15 A3015 RMK A01 T02560146  RH  053%=      5-min Rain = 0
KLBW 110530Z 16006KT 26/15 A3015 RMK A01 T02560147  RH  053%=      5-min Rain = 0
KLBW 110535Z 16006KT 26/15 A3015 RMK A01 T02550146  RH  053%=      5-min Rain = 0
KLBW 110540Z 16007KT 26/15 A3015 RMK A01 T02560146  RH  053%=      5-min Rain = 0
KLBW 110545Z 17006KT 26/15 A3015 RMK A01 T02560146  RH  053%=      5-min Rain = 0
KLBW 110550Z 17005KT 25/15 A3015 RMK A01 T02530146  RH  054%=      5-min Rain = 0
KLBW 110555Z 17006KT 25/15 A3015 RMK A01 T02520146  RH  054%=      5-min Rain = 0
KLBW 110600Z 18006KT 25/15 A3015 RMK A01 T02520146  RH  054%=      5-min Rain = 0
KLBW 110605Z 17006KT 25/15 A3015 RMK A01 T02500147  RH  055%=      5-min Rain = 0
KLBW 110610Z 18007KT 25/15 A3015 RMK A01 T02500148  RH  055%=      5-min Rain = 0
KLBW 110615Z 18007KT 25/15 A3015 RMK A01 T02500149  RH  056%=      5-min Rain = 0
KLBW 110620Z 17006KT 25/15 A3015 RMK A01 T02500149  RH  056%=      5-min Rain = 0
KLBW 110625Z 17007KT 25/15 A3015 RMK A01 T02500149  RH  056%=      5-min Rain = 0
KLBW 110630Z 18007KT 25/15 A3015 RMK A01 T02490150  RH  057%=      5-min Rain = 0
KLBW 110635Z 18008KT 25/15 A3015 RMK A01 T02490151  RH  057%=      5-min Rain = 0
KLBW 110640Z 18007KT 25/15 A3015 RMK A01 T02490152  RH  057%=      5-min Rain = 0
KLBW 110645Z 18007KT 25/15 A3015 RMK A01 T02480152  RH  058%=      5-min Rain = 0
KLBW 110650Z 18007KT 25/15 A3015 RMK A01 T02480153  RH  058%=      5-min Rain = 0
KLBW 110655Z 17008KT 25/15 A3015 RMK A01 T02490154  RH  058%=      5-min Rain = 0
KLBW 110700Z 18007KT 25/16 A3015 RMK A01 T02480155  RH  059%=      5-min Rain = 0
KLBW 110705Z 18007G12KT 25/16 A3015 RMK A01 T02480155  RH  059%=      5-min Rain = 0
KLBW 110710Z 18007KT 25/16 A3015 RMK A01 T02470156  RH  059%=      5-min Rain = 0
KLBW 110715Z 18007KT 25/16 A3015 RMK A01 T02470156  RH  060%=      5-min Rain = 0
KLBW 110720Z 18006G11KT 25/16 A3015 RMK A01 T02460156  RH  060%=      5-min Rain = 0
KLBW 110725Z 18007KT 25/16 A3015 RMK A01 T02450156  RH  060%=      5-min Rain = 0
KLBW 110730Z 18007KT 24/16 A3015 RMK A01 T02440156  RH  061%=      5-min Rain = 0
KLBW 110735Z 18007KT 24/16 A3015 RMK A01 T02440156  RH  061%=      5-min Rain = 0
KLBW 110740Z 17005KT 24/16 A3015 RMK A01 T02430156  RH  061%=      5-min Rain = 0
KLBW 110745Z 17005KT 24/16 A3015 RMK A01 T02420156  RH  062%=      5-min Rain = 0
KLBW 110750Z 17006KT 24/16 A3015 RMK A01 T02420157  RH  062%=      5-min Rain = 0
KLBW 110755Z 17006KT 24/16 A3015 RMK A01 T02420157  RH  062%=      5-min Rain = 0
KLBW 110800Z 16006KT 24/16 A3015 RMK A01 T02420157  RH  062%=      5-min Rain = 0
KLBW 110805Z 16006KT 24/16 A3015 RMK A01 T02410157  RH  062%=      5-min Rain = 0
KLBW 110810Z 17006KT 24/16 A3015 RMK A01 T02400157  RH  063%=      5-min Rain = 0
KLBW 110815Z 17005KT 24/16 A3015 RMK A01 T02390157  RH  063%=      5-min Rain = 0
KLBW 110820Z 17005KT 24/16 A3015 RMK A01 T02360157  RH  064%=      5-min Rain = 0
KLBW 110825Z 16004KT 24/16 A3015 RMK A01 T02350157  RH  064%=      5-min Rain = 0
KLBW 110830Z 16004KT 23/16 A3015 RMK A01 T02330157  RH  065%=      5-min Rain = 0
KLBW 110835Z 17003KT 23/16 A3015 RMK A01 T02300156  RH  066%=      5-min Rain = 0
KLBW 110840Z 17003KT 23/16 A3015 RMK A01 T02280156  RH  067%=      5-min Rain = 0
KLBW 110845Z 17003KT 23/16 A3015 RMK A01 T02260156  RH  068%=      5-min Rain = 0
KLBW 110850Z 17004KT 22/16 A3014 RMK A01 T02240156  RH  069%=      5-min Rain = 0
KLBW 110855Z 17004KT 22/16 A3014 RMK A01 T02230157  RH  069%=      5-min Rain = 0
KLBW 110900Z 17004KT 22/16 A3014 RMK A01 T02240158  RH  069%=      5-min Rain = 0
KLBW 110905Z 17004KT 22/16 A3014 RMK A01 T02240158  RH  069%=      5-min Rain = 0
KLBW 110910Z 17004KT 22/16 A3014 RMK A01 T02240158  RH  069%=      5-min Rain = 0
KLBW 110915Z 17003KT 22/16 A3014 RMK A01 T02230158  RH  070%=      5-min Rain = 0
KLBW 110920Z 17003KT 22/16 A3014 RMK A01 T02220158  RH  070%=      5-min Rain = 0
KLBW 110925Z 17003KT 22/16 A3014 RMK A01 T02210157  RH  071%=      5-min Rain = 0
KLBW 110930Z 17003KT 22/16 A3014 RMK A01 T02190157  RH  071%=      5-min Rain = 0
KLBW 110935Z 16003KT 22/16 A3014 RMK A01 T02170157  RH  072%=      5-min Rain = 0
KLBW 110940Z 16004KT 22/16 A3014 RMK A01 T02150157  RH  073%=      5-min Rain = 0
KLBW 110945Z 16005KT 21/16 A3014 RMK A01 T02130157  RH  074%=      5-min Rain = 0
KLBW 110950Z 15003KT 21/16 A3014 RMK A01 T02130157  RH  073%=      5-min Rain = 0
KLBW 110955Z 14005KT 21/16 A3014 RMK A01 T02140158  RH  074%=      5-min Rain = 0
KLBW 111000Z 14004KT 22/16 A3014 RMK A01 T02150158  RH  073%=      5-min Rain = 0
KLBW 111005Z 14005KT 22/16 A3014 RMK A01 T02170158  RH  073%=      5-min Rain = 0
KLBW 111010Z 14004KT 22/16 A3014 RMK A01 T02180158  RH  072%=      5-min Rain = 0
KLBW 111015Z 14005KT 22/16 A3014 RMK A01 T02170158  RH  072%=      5-min Rain = 0
KLBW 111020Z 13004KT 22/16 A3014 RMK A01 T02170158  RH  073%=      5-min Rain = 0
KLBW 111025Z 13003KT 22/16 A3014 RMK A01 T02160158  RH  073%=      5-min Rain = 0
KLBW 111030Z 14004KT 22/16 A3014 RMK A01 T02150157  RH  073%=      5-min Rain = 0
KLBW 111035Z 14003KT 21/16 A3014 RMK A01 T02130156  RH  073%=      5-min Rain = 0
KLBW 111040Z 14003KT 21/16 A3014 RMK A01 T02120156  RH  074%=      5-min Rain = 0
KLBW 111045Z 15003KT 21/16 A3014 RMK A01 T02090155  RH  075%=      5-min Rain = 0
KLBW 111050Z 15004KT 21/16 A3014 RMK A01 T02070155  RH  075%=      5-min Rain = 0
KLBW 111055Z 15003KT 21/15 A3014 RMK A01 T02060154  RH  075%=      5-min Rain = 0
KLBW 111100Z 15003KT 21/15 A3014 RMK A01 T02060153  RH  075%=      5-min Rain = 0
KLBW 111105Z 15004KT 21/15 A3014 RMK A01 T02060153  RH  075%=      5-min Rain = 0
KLBW 111110Z 16005KT 21/15 A3014 RMK A01 T02060151  RH  074%=      5-min Rain = 0
KLBW 111115Z 15005KT 21/15 A3014 RMK A01 T02090149  RH  072%=      5-min Rain = 0
KLBW 111120Z 16004KT 21/15 A3014 RMK A01 T02120148  RH  070%=      5-min Rain = 0
KLBW 111125Z 16004KT 22/15 A3014 RMK A01 T02150147  RH  068%=      5-min Rain = 0
KLBW 111130Z 16005KT 22/15 A3014 RMK A01 T02160147  RH  068%=      5-min Rain = 0
KLBW 111135Z 16005KT 22/15 A3015 RMK A01 T02170146  RH  067%=      5-min Rain = 0
KLBW 111140Z 17005KT 22/14 A3015 RMK A01 T02180143  RH  065%=      5-min Rain = 0
KLBW 111145Z 17005KT 22/14 A3015 RMK A01 T02190142  RH  064%=      5-min Rain = 0
KLBW 111150Z 17005KT 22/14 A3015 RMK A01 T02190141  RH  064%=      5-min Rain = 0
KLBW 111155Z 17005KT 22/14 A3015 RMK A01 T02200140  RH  063%=      5-min Rain = 0
KLBW 111200Z 18005KT 22/14 A3015 RMK A01 T02190140  RH  063%=      5-min Rain = 0
KLBW 111205Z 18006KT 22/14 A3015 RMK A01 T02200139  RH  062%=      5-min Rain = 0
KLBW 111210Z 17006KT 22/14 A3015 RMK A01 T02210137  RH  062%=      5-min Rain = 0
KLBW 111215Z 17006KT 22/14 A3015 RMK A01 T02210137  RH  061%=      5-min Rain = 0
KLBW 111220Z 17007KT 22/14 A3015 RMK A01 T02220136  RH  061%=      5-min Rain = 0
KLBW 111225Z 17007G12KT 22/14 A3016 RMK A01 T02230136  RH  060%=      5-min Rain = 0
KLBW 111230Z 18008KT 23/14 A3016 RMK A01 T02250137  RH  060%=      5-min Rain = 0
KLBW 111235Z 18008KT 23/14 A3016 RMK A01 T02270138  RH  060%=      5-min Rain = 0
KLBW 111240Z 18009G14KT 23/14 A3015 RMK A01 T02290139  RH  059%=      5-min Rain = 0
KLBW 111245Z 18010KT 23/14 A3015 RMK A01 T02290140  RH  060%=      5-min Rain = 0
KLBW 111250Z 18010KT 23/14 A3015 RMK A01 T02300140  RH  059%=      5-min Rain = 0
KLBW 111255Z 18010KT 23/14 A3015 RMK A01 T02300141  RH  059%=      5-min Rain = 0
KLBW 111300Z 18009G14KT 23/14 A3015 RMK A01 T02300141  RH  060%=      5-min Rain = 0
KLBW 111305Z 19009KT 23/14 A3015 RMK A01 T02320142  RH  059%=      5-min Rain = 0
KLBW 111310Z 19010KT 24/14 A3015 RMK A01 T02350143  RH  059%=      5-min Rain = 0
KLBW 111315Z 18008KT 24/14 A3015 RMK A01 T02360144  RH  058%=      5-min Rain = 0
KLBW 111320Z 19009G14KT 24/14 A3015 RMK A01 T02390144  RH  058%=      5-min Rain = 0
KLBW 111325Z 19011KT 24/14 A3015 RMK A01 T02380144  RH  058%=      5-min Rain = 0
KLBW 111330Z 19008KT 24/15 A3015 RMK A01 T02380145  RH  058%=      5-min Rain = 0
KLBW 111335Z 19007G13KT 24/15 A3016 RMK A01 T02400145  RH  058%=      5-min Rain = 0
KLBW 111340Z 19009KT 24/15 A3016 RMK A01 T02410145  RH  057%=      5-min Rain = 0
KLBW 111345Z 19008G13KT 24/15 A3016 RMK A01 T02420146  RH  057%=      5-min Rain = 0
KLBW 111350Z 19009KT 24/15 A3016 RMK A01 T02420146  RH  057%=      5-min Rain = 0
KLBW 111355Z 18009KT 25/15 A3016 RMK A01 T02480147  RH  056%=      5-min Rain = 0
KLBW 111400Z 18009KT 25/15 A3016 RMK A01 T02510148  RH  055%=      5-min Rain = 0
KLBW 111405Z 19008KT 25/15 A3016 RMK A01 T02520149  RH  055%=      5-min Rain = 0
KLBW 111410Z 19010KT 26/15 A3016 RMK A01 T02560149  RH  054%=      5-min Rain = 0
KLBW 111415Z 19010G17KT 26/15 A3017 RMK A01 T02570150  RH  054%=      5-min Rain = 0
KLBW 111420Z 19010G16KT 26/15 A3017 RMK A01 T02610151  RH  053%=      5-min Rain = 0
KLBW 111425Z 18012G17KT 26/15 A3017 RMK A01 T02610150  RH  053%=      5-min Rain = 0
KLBW 111430Z 19012KT 26/15 A3017 RMK A01 T02610149  RH  052%=      5-min Rain = 0
KLBW 111435Z 20012KT 26/15 A3017 RMK A01 T02630150  RH  052%=      5-min Rain = 0
KLBW 111440Z 20012G18KT 26/15 A3017 RMK A01 T02630150  RH  052%=      5-min Rain = 0
KLBW 111445Z 19011KT 26/15 A3017 RMK A01 T02550149  RH  054%=      5-min Rain = 0
KLBW 111450Z 19011KT 26/15 A3016 RMK A01 T02570150  RH  054%=      5-min Rain = 0
KLBW 111455Z 19010G15KT 27/15 A3017 RMK A01 T02670151  RH  051%=      5-min Rain = 0
KLBW 111500Z 18010KT 27/15 A3017 RMK A01 T02680150  RH  051%=      5-min Rain = 0
KLBW 111505Z 19009KT 27/15 A3017 RMK A01 T02730152  RH  050%=      5-min Rain = 0
KLBW 111510Z 18010G15KT 27/15 A3017 RMK A01 T02740151  RH  049%=      5-min Rain = 0
KLBW 111515Z 18009KT 28/15 A3017 RMK A01 T02750153  RH  049%=      5-min Rain = 0
KLBW 111520Z 18009KT 28/15 A3017 RMK A01 T02790152  RH  048%=      5-min Rain = 0
KLBW 111525Z 18009G15KT 28/15 A3017 RMK A01 T02830152  RH  047%=      5-min Rain = 0
KLBW 111530Z 19010KT 28/15 A3016 RMK A01 T02800150  RH  047%=      5-min Rain = 0
KLBW 111535Z 17009G14KT 28/15 A3016 RMK A01 T02810151  RH  047%=      5-min Rain = 0
KLBW 111540Z 18009G14KT 28/15 A3016 RMK A01 T02820151  RH  047%=      5-min Rain = 0
KLBW 111545Z 18010KT 28/15 A3016 RMK A01 T02770151  RH  048%=      5-min Rain = 0
KLBW 111550Z 18009KT 28/15 A3016 RMK A01 T02750151  RH  049%=      5-min Rain = 0
KLBW 111555Z 18008G13KT 28/15 A3016 RMK A01 T02790153  RH  048%=      5-min Rain = 0
KLBW 111600Z 18008KT 28/15 A3016 RMK A01 T02800154  RH  048%=      5-min Rain = 0
KLBW 111605Z 17009KT 28/15 A3016 RMK A01 T02830154  RH  047%=      5-min Rain = 0
KLBW 111610Z 18009KT 28/15 A3016 RMK A01 T02840153  RH  047%=      5-min Rain = 0
KLBW 111615Z 17008KT 29/16 A3016 RMK A01 T02920156  RH  046%=      5-min Rain = 0
KLBW 111620Z 16009G14KT 30/16 A3016 RMK A01 T03010156  RH  044%=      5-min Rain = 0
KLBW 111625Z 17008G15KT 30/15 A3016 RMK A01 T02960151  RH  043%=      5-min Rain = 0
KLBW 111630Z 18007G12KT 30/15 A3015 RMK A01 T03010152  RH  042%=      5-min Rain = 0
KLBW 111635Z 19009KT 31/15 A3015 RMK A01 T03050147  RH  040%=      5-min Rain = 0
KLBW 111640Z 19009G14KT 30/15 A3015 RMK A01 T03040148  RH  040%=      5-min Rain = 0
KLBW 111645Z 17011KT 30/14 A3016 RMK A01 T03020141  RH  039%=      5-min Rain = 0
KLBW 111650Z 16009G14KT 30/15 A3015 RMK A01 T03020145  RH  040%=      5-min Rain = 0
KLBW 111655Z 18011G16KT 30/14 A3015 RMK A01 T03000141  RH  039%=      5-min Rain = 0
KLBW 111700Z 17010G16KT 30/14 A3015 RMK A01 T03030142  RH  039%=      5-min Rain = 0
KLBW 111705Z 19010KT 31/14 A3015 RMK A01 T03080141  RH  038%=      5-min Rain = 0
KLBW 111710Z 19010G15KT 31/14 A3015 RMK A01 T03120140  RH  037%=      5-min Rain = 0
KLBW 111715Z 20011KT 31/14 A3015 RMK A01 T03120139  RH  036%=      5-min Rain = 0
KLBW 111720Z 15012G17KT 31/13 A3015 RMK A01 T03130128  RH  034%=      5-min Rain = 0
KLBW 111725Z 16013G18KT 32/13 A3015 RMK A01 T03150130  RH  034%=      5-min Rain = 0
KLBW 111730Z 17010G15KT 32/13 A3015 RMK A01 T03170133  RH  034%=      5-min Rain = 0
KLBW 111735Z 18009KT 31/13 A3014 RMK A01 T03130133  RH  035%=      5-min Rain = 0
KLBW 111740Z 16009G14KT 32/13 A3014 RMK A01 T03170134  RH  034%=      5-min Rain = 0
KLBW 111745Z 16010G15KT 33/14 A3014 RMK A01 T03250135  RH  033%=      5-min Rain = 0
KLBW 111750Z 18012G17KT 32/13 A3014 RMK A01 T03230131  RH  032%=      5-min Rain = 0
KLBW 111755Z 15013G18KT 33/13 A3014 RMK A01 T03260130  RH  032%=      5-min Rain = 0
KLBW 111800Z 17012G19KT 33/13 A3013 RMK A01 T03280130  RH  031%=      5-min Rain = 0
KLBW 111805Z 18012G19KT 33/13 A3013 RMK A01 T03300128  RH  031%=      5-min Rain = 0
KLBW 111810Z 16012G18KT 33/13 A3013 RMK A01 T03270128  RH  031%=      5-min Rain = 0
KLBW 111815Z 16014G21KT 33/13 A3013 RMK A01 T03280126  RH  030%=      5-min Rain = 0
KLBW 111820Z 18014G20KT 33/13 A3013 RMK A01 T03260128  RH  031%=      5-min Rain = 0
KLBW 111825Z 18012KT 33/13 A3012 RMK A01 T03270127  RH  031%=      5-min Rain = 0
KLBW 111830Z 15012G20KT 33/13 A3012 RMK A01 T03320131  RH  031%=      5-min Rain = 0
KLBW 111835Z 16014G21KT 33/13 A3012 RMK A01 T03290133  RH  032%=      5-min Rain = 0
KLBW 111840Z 16013G20KT 32/13 A3012 RMK A01 T03220131  RH  033%=      5-min Rain = 0
KLBW 111845Z 18013G18KT 32/13 A3011 RMK A01 T03190126  RH  032%=      5-min Rain = 0
KLBW 111850Z 15014G21KT 33/13 A3011 RMK A01 T03300130  RH  031%=      5-min Rain = 0
KLBW 111855Z 15013G19KT 33/13 A3011 RMK A01 T03300129  RH  031%=      5-min Rain = 0
KLBW 111900Z 16014G20KT 33/13 A301 RMK A01 T03330127  RH  030%=      5-min Rain = 0
KLBW 111905Z 18014G23KT 34/12 A301 RMK A01 T03350124  RH  029%=      5-min Rain = 0
KLBW 111910Z 19015G23KT 33/12 A301 RMK A01 T03330120  RH  028%=      5-min Rain = 0
KLBW 111915Z 18012G20KT 33/12 A301 RMK A01 T03280120  RH  029%=      5-min Rain = 0
KLBW 111920Z 17014G21KT 33/12 A301 RMK A01 T03260120  RH  030%=      5-min Rain = 0
KLBW 111925Z 16013G18KT 33/12 A301 RMK A01 T03320119  RH  028%=      5-min Rain = 0
KLBW 111930Z 15014G22KT 33/12 A3009 RMK A01 T03330117  RH  028%=      5-min Rain = 0
KLBW 111935Z 16016G21KT 33/12 A3009 RMK A01 T03320117  RH  028%=      5-min Rain = 0
KLBW 111940Z 16015G23KT 34/12 A3009 RMK A01 T03360117  RH  027%=      5-min Rain = 0
KLBW 111945Z 17013G20KT 34/11 A3009 RMK A01 T03420113  RH  026%=      5-min Rain = 0
KLBW 111950Z 19014G19KT 34/11 A3009 RMK A01 T03440113  RH  026%=      5-min Rain = 0
KLBW 111955Z 18013G20KT 34/11 A3009 RMK A01 T03390113  RH  026%=      5-min Rain = 0
KLBW 112000Z 17013G21KT 34/12 A3009 RMK A01 T03350115  RH  027%=      5-min Rain = 0
KLBW 112005Z 16014G20KT 34/12 A3008 RMK A01 T03430115  RH  026%=      5-min Rain = 0
KLBW 112010Z 16012G24KT 34/12 A3008 RMK A01 T03390115  RH  027%=      5-min Rain = 0
KLBW 112015Z 17010G16KT 33/11 A3008 RMK A01 T03330114  RH  027%=      5-min Rain = 0
KLBW 112020Z 17012G19KT 35/11 A3008 RMK A01 T03460114  RH  025%=      5-min Rain = 0
KLBW 112025Z 16013G23KT 34/11 A3008 RMK A01 T03410114  RH  026%=      5-min Rain = 0
KLBW 112030Z 17013G19KT 35/11 A3007 RMK A01 T03450113  RH  025%=      5-min Rain = 0
KLBW 112035Z 17012G19KT 35/12 A3007 RMK A01 T03480116  RH  025%=      5-min Rain = 0
KLBW 112040Z 19013G19KT 35/12 A3007 RMK A01 T03470117  RH  026%=      5-min Rain = 0
KLBW 112045Z 18014G23KT 35/12 A3006 RMK A01 T03450116  RH  026%=      5-min Rain = 0
KLBW 112050Z 16014G20KT 34/12 A3006 RMK A01 T03420116  RH  026%=      5-min Rain = 0
KLBW 112055Z 16014G22KT 34/12 A3006 RMK A01 T03400116  RH  027%=      5-min Rain = 0
KLBW 112100Z 16015G22KT 34/12 A3006 RMK A01 T03410120  RH  027%=      5-min Rain = 0
KLBW 112105Z 18014G22KT 35/12 A3006 RMK A01 T03460120  RH  026%=      5-min Rain = 0
KLBW 112110Z 17011G17KT 34/12 A3006 RMK A01 T03430119  RH  027%=      5-min Rain = 0
KLBW 112115Z 18012G22KT 35/12 A3005 RMK A01 T03470120  RH  026%=      5-min Rain = 0
KLBW 112120Z 17011G16KT 34/12 A3005 RMK A01 T03360118  RH  028%=      5-min Rain = 0
KLBW 112125Z 16012G18KT 33/12 A3005 RMK A01 T03330120  RH  028%=      5-min Rain = 0
KLBW 112130Z 17013G20KT 34/12 A3004 RMK A01 T03400120  RH  027%=      5-min Rain = 0
KLBW 112135Z 19010KT 34/12 A3004 RMK A01 T03420119  RH  027%=      5-min Rain = 0
KLBW 112140Z 15014G19KT 34/12 A3004 RMK A01 T03370119  RH  028%=      5-min Rain = 0
KLBW 112145Z 15010G15KT 33/12 A3004 RMK A01 T03300120  RH  029%=      5-min Rain = 0
KLBW 112150Z 18014G19KT 33/12 A3004 RMK A01 T03330119  RH  028%=      5-min Rain = 0
KLBW 112155Z 16010G15KT 33/12 A3003 RMK A01 T03310119  RH  028%=      5-min Rain = 0
KLBW 112200Z 16012G18KT 33/12 A3003 RMK A01 T03330118  RH  028%=      5-min Rain = 0
KLBW 112205Z 18012KT 33/12 A3003 RMK A01 T03310116  RH  028%=      5-min Rain = 0
KLBW 112210Z 18012G17KT 33/12 A3003 RMK A01 T03310115  RH  028%=      5-min Rain = 0
KLBW 112215Z 17012KT 34/12 A3003 RMK A01 T03370116  RH  027%=      5-min Rain = 0
KLBW 112220Z 15009G14KT 35/12 A3003 RMK A01 T03490115  RH  025%=      5-min Rain = 0
KLBW 112225Z 18011G17KT 35/12 A3003 RMK A01 T03490117  RH  026%=      5-min Rain = 0
KLBW 112230Z 17011G16KT 35/12 A3003 RMK A01 T03500116  RH  025%=      5-min Rain = 0
KLBW 112235Z 19011G16KT 34/11 A3003 RMK A01 T03390113  RH  026%=      5-min Rain = 0
KLBW 112240Z 18011G16KT 35/12 A3003 RMK A01 T03500116  RH  025%=      5-min Rain = 0
KLBW 112245Z 19015G20KT 35/12 A3003 RMK A01 T03480118  RH  026%=      5-min Rain = 0
KLBW 112250Z 19012G18KT 35/12 A3003 RMK A01 T03490117  RH  025%=      5-min Rain = 0
KLBW 112255Z 19010G15KT 35/12 A3003 RMK A01 T03480117  RH  026%=      5-min Rain = 0
KLBW 112300Z 18013G18KT 35/12 A3003 RMK A01 T03480117  RH  026%=      5-min Rain = 0
KLBW 112305Z 18013G19KT 35/12 A3002 RMK A01 T03450117  RH  026%=      5-min Rain = 0
KLBW 112310Z 18012KT 34/12 A3002 RMK A01 T03440118  RH  026%=      5-min Rain = 0
KLBW 112315Z 19011G16KT 34/12 A3002 RMK A01 T03400117  RH  027%=      5-min Rain = 0
KLBW 112320Z 17012G18KT 35/12 A3002 RMK A01 T03450118  RH  026%=      5-min Rain = 0
KLBW 112325Z 16014G22KT 34/12 A3002 RMK A01 T03430117  RH  026%=      5-min Rain = 0
KLBW 112330Z 18012G18KT 34/12 A3002 RMK A01 T03430118  RH  026%=      5-min Rain = 0
KLBW 112335Z 19012G17KT 34/12 A3002 RMK A01 T03430117  RH  026%=      5-min Rain = 0
KLBW 112340Z 17010G15KT 34/12 A3002 RMK A01 T03360118  RH  028%=      5-min Rain = 0
KLBW 112345Z 18013G22KT 34/12 A3002 RMK A01 T03420119  RH  027%=      5-min Rain = 0
KLBW 112350Z 16010KT 35/12 A3002 RMK A01 T03450119  RH  026%=      5-min Rain = 0
KLBW 112355Z 17012G19KT 34/12 A3001 RMK A01 T03390117  RH  027%=      5-min Rain = 0
KLBW 120000Z 17014G20KT 34/12 A3002 RMK A01 T03380118  RH  027%=      5-min Rain = 0
KLBW 120005Z 17012KT 34/12 A3002 RMK A01 T03350119  RH  028%=      5-min Rain = 0
KLBW 120010Z 16013G19KT 34/12 A3002 RMK A01 T03360119  RH  028%=      5-min Rain = 0
KLBW 120015Z 16013G18KT 33/12 A3002 RMK A01 T03300121  RH  029%=      5-min Rain = 0
KLBW 120020Z 16012G18KT 33/12 A3002 RMK A01 T03260121  RH  030%=      5-min Rain = 0
KLBW 120025Z 17012G18KT 32/12 A3002 RMK A01 T03220121  RH  031%=      5-min Rain = 0
KLBW 120030Z 18011G17KT 32/12 A3003 RMK A01 T03220122  RH  031%=      5-min Rain = 0
KLBW 120035Z 17011G16KT 32/12 A3003 RMK A01 T03240123  RH  031%=      5-min Rain = 0
KLBW 120040Z 16012G17KT 32/12 A3003 RMK A01 T03210122  RH  031%=      5-min Rain = 0
KLBW 120045Z 17013KT 32/12 A3003 RMK A01 T03180122  RH  031%=      5-min Rain = 0
KLBW 120050Z 17012G17KT 32/12 A3003 RMK A01 T03170122  RH  032%=      5-min Rain = 0
KLBW 120055Z 17012G17KT 32/12 A3003 RMK A01 T03150122  RH  032%=      5-min Rain = 0
KLBW 120100Z 17012G17KT 31/12 A3004 RMK A01 T03140123  RH  032%=      5-min Rain = 0
KLBW 120105Z 16012G19KT 31/13 A3004 RMK A01 T03120126  RH  033%=      5-min Rain = 0
KLBW 120110Z 14010KT 31/13 A3004 RMK A01 T03100127  RH  034%=      5-min Rain = 0
KLBW 120115Z 15010KT 31/13 A3004 RMK A01 T03090127  RH  034%=      5-min Rain = 0
KLBW 120120Z 14008G13KT 31/13 A3004 RMK A01 T03080128  RH  034%=      5-min Rain = 0
KLBW 120125Z 14008KT 31/13 A3004 RMK A01 T03070128  RH  035%=      5-min Rain = 0
KLBW 120130Z 14008KT 31/13 A3004 RMK A01 T03080128  RH  035%=      5-min Rain = 0
KLBW 120135Z 14008KT 31/13 A3004 RMK A01 T03080128  RH  035%=      5-min Rain = 0
KLBW 120140Z 14006KT 31/13 A3004 RMK A01 T03070129  RH  035%=      5-min Rain = 0
KLBW 120145Z 14006KT 31/13 A3004 RMK A01 T03070129  RH  035%=      5-min Rain = 0
KLBW 120150Z 14006KT 31/13 A3004 RMK A01 T03060129  RH  035%=      5-min Rain = 0
KLBW 120155Z 14007KT 31/13 A3004 RMK A01 T03060128  RH  035%=      5-min Rain = 0
KLBW 120200Z 14009G16KT 31/13 A3004 RMK A01 T03050130  RH  036%=      5-min Rain = 0
KLBW 120205Z 15009KT 30/13 A3005 RMK A01 T03040129  RH  036%=      5-min Rain = 0
KLBW 120210Z 16008KT 30/13 A3005 RMK A01 T03020129  RH  036%=      5-min Rain = 0
KLBW 120215Z 16008KT 30/13 A3005 RMK A01 T03000128  RH  036%=      5-min Rain = 0
KLBW 120220Z 15006KT 30/13 A3005 RMK A01 T02990128  RH  036%=      5-min Rain = 0
KLBW 120225Z 16006KT 30/13 A3005 RMK A01 T02980127  RH  036%=      5-min Rain = 0
KLBW 120230Z 16007KT 30/13 A3006 RMK A01 T02970127  RH  036%=      5-min Rain = 0
KLBW 120235Z 15006KT 30/13 A3006 RMK A01 T02970126  RH  036%=      5-min Rain = 0
KLBW 120240Z 16006KT 30/13 A3006 RMK A01 T02960126  RH  037%=      5-min Rain = 0
KLBW 120245Z 16006KT 30/13 A3006 RMK A01 T02960127  RH  037%=      5-min Rain = 0
KLBW 120250Z 16006KT 30/13 A3007 RMK A01 T02960127  RH  037%=      5-min Rain = 0
KLBW 120255Z 15006KT 30/13 A3007 RMK A01 T02950127  RH  037%=      5-min Rain = 0
KLBW 120300Z 13006KT 29/13 A3007 RMK A01 T02940127  RH  037%=      5-min Rain = 0
KLBW 120305Z 14008KT 29/13 A3007 RMK A01 T02940127  RH  037%=      5-min Rain = 0
KLBW 120310Z 14010G17KT 30/13 A3008 RMK A01 T02950127  RH  037%=      5-min Rain = 0
KLBW 120315Z 14014G22KT 29/13 A3008 RMK A01 T02900131  RH  039%=      5-min Rain = 0
KLBW 120320Z 13013G21KT 28/14 A3008 RMK A01 T02840138  RH  042%=      5-min Rain = 0
KLBW 120325Z 13014G19KT 28/14 A3008 RMK A01 T02770137  RH  044%=      5-min Rain = 0
KLBW 120330Z 13010G15KT 27/14 A3008 RMK A01 T02730138  RH  045%=      5-min Rain = 0
KLBW 120335Z 13012G17KT 28/14 A3009 RMK A01 T02780138  RH  044%=      5-min Rain = 0
KLBW 120340Z 13012G17KT 28/14 A3009 RMK A01 T02830136  RH  042%=      5-min Rain = 0
KLBW 120345Z 12011KT 29/14 A3009 RMK A01 T02850136  RH  042%=      5-min Rain = 0
KLBW 120350Z 11010G16KT 28/14 A3009 RMK A01 T02800140  RH  044%=      5-min Rain = 0
KLBW 120355Z 11009G14KT 28/14 A3009 RMK A01 T02750141  RH  046%=      5-min Rain = 0
KLBW 120400Z 12008KT 28/14 A301 RMK A01 T02760140  RH  045%=      5-min Rain = 0
KLBW 120405Z 13008KT 28/14 A3009 RMK A01 T02750141  RH  046%=      5-min Rain = 0
KLBW 120410Z 15008KT 28/14 A3009 RMK A01 T02760140  RH  045%=      5-min Rain = 0
KLBW 120415Z 15009G14KT 28/14 A3009 RMK A01 T02790136  RH  043%=      5-min Rain = 0
KLBW 120420Z 15011KT 28/13 A3009 RMK A01 T02810134  RH  042%=      5-min Rain = 0
KLBW 120425Z 15009KT 28/14 A301 RMK A01 T02790135  RH  043%=      5-min Rain = 0
KLBW 120430Z 15010G15KT 28/14 A301 RMK A01 T02780136  RH  043%=      5-min Rain = 0
KLBW 120435Z 15012G17KT 28/14 A301 RMK A01 T02780135  RH  043%=      5-min Rain = 0
KLBW 120440Z 15009G14KT 28/14 A301 RMK A01 T02790135  RH  043%=      5-min Rain = 0
KLBW 120445Z 15010KT 28/14 A301 RMK A01 T02780136  RH  044%=      5-min Rain = 0
KLBW 120450Z 15009G14KT 28/14 A301 RMK A01 T02770137  RH  044%=      5-min Rain = 0
KLBW 120455Z 15008KT 28/14 A301 RMK A01 T02750136  RH  044%=      5-min Rain = 0
KLBW 120500Z 15007G12KT 28/14 A301 RMK A01 T02750136  RH  044%=      5-min Rain = 0

Page generated in 0.0096 seconds.